• Join FlightAware (Why Join?)
  • Login
  • US Flag 
04:34AM EST


 

Airport Tracker/Info


-or-


 

Live Flight TrackerFlight Track Log ✈ N6039N ✈ 09-Mar-2012 ✈ KFCM - KBDE

Flight Track Log - Related Links

Times and Time Zones

All times are in EST time to prevent confusion due to time zone crossing. See the N6039N flight status page for this flight to view local times or setup timezone preferences in your user account.

Time Position Orientation Groundspeed Altitude Reporting Facility
EST Latitude Longitude Course Direction KTS MPH feet Rate Location/Type
02:40PM 44.9033 -93.4464 349° North 145 167 2,400  Level FAA TRACON SMA TRACON (SMA)
02:44PM 45.0764 -93.4928 347° North 168 193 2,900 60 Climbing FAA TRACON SMA TRACON (SMA)
02:45PM 45.1078 -93.5033 349° North 168 193 2,900  Level FAA TRACON SMA TRACON (SMA)
02:46PM 45.1361 -93.5114 348° North 167 192 2,900  Level FAA TRACON SMA TRACON (SMA)
02:46PM 45.1672 -93.5211 350° North 165 190 2,900  Level FAA TRACON SMA TRACON (SMA)
02:47PM 45.1994 -93.5289 349° North 169 194 2,900 180 Level FAA TRACON SMA TRACON (SMA)
02:48PM 45.2272 -93.5367 349° North 164 189 3,200 480 Climbing FAA TRACON SMA TRACON (SMA)
02:48PM 45.2567 -93.5447 349° North 158 182 3,600 480 Climbing FAA TRACON SMA TRACON (SMA)
02:49PM 45.2861 -93.5525 348° North 154 177 3,900 360 Climbing FAA TRACON SMA TRACON (SMA)
02:50PM 45.3119 -93.5603 348° North 155 178 4,100 480 Climbing FAA TRACON SMA TRACON (SMA)
02:50PM 45.3400 -93.5686 350° North 149 171 4,600 780 Climbing FAA TRACON SMA TRACON (SMA)
02:51PM 45.3656 -93.5750 349° North 136 157 5,200 720 Climbing FAA TRACON SMA TRACON (SMA)
02:52PM 45.3872 -93.5811 346° North 129 148 5,600 480 Climbing FAA TRACON SMA TRACON (SMA)
02:52PM 45.4106 -93.5894 348° North 127 146 5,900 180 Climbing FAA TRACON SMA TRACON (SMA)
02:53PM 45.4369 -93.5975 350° North 143 165 5,900  Level FAA TRACON SMA TRACON (SMA)
02:54PM 45.4625 -93.6039 347° North 150 173 5,900  Level FAA TRACON SMA TRACON (SMA)
02:54PM 45.4908 -93.6133 350° North 151 174 5,900  Level FAA TRACON SMA TRACON (SMA)
02:55PM 45.5200 -93.6206 351° North 153 176 5,900  Level FAA TRACON SMA TRACON (SMA)
02:56PM 45.5458 -93.6264 346° North 154 177 5,900  Level FAA TRACON SMA TRACON (SMA)
02:56PM 45.5739 -93.6364 351° North 150 173 5,900  Level FAA TRACON SMA TRACON (SMA)
02:57PM 45.6031 -93.6431 346° North 153 176 5,900  Level FAA TRACON SMA TRACON (SMA)
02:58PM 45.6281 -93.6519 348° North 152 175 5,900  Level FAA TRACON SMA TRACON (SMA)
02:58PM 45.6569 -93.6606 351° North 152 175 5,900  Level FAA TRACON SMA TRACON (SMA)
02:59PM 45.6864 -93.6672 344° North 158 182 5,900  Level FAA TRACON SMA TRACON (SMA)
03:00PM 45.7111 -93.6772 350° North 152 175 5,900  Level FAA TRACON SMA TRACON (SMA)
03:00PM 45.7403 -93.6844 348° North 156 180 5,900  Level FAA TRACON SMA TRACON (SMA)
03:01PM 45.7689 -93.6933 348° North 153 176 5,900  Level FAA TRACON SMA TRACON (SMA)
03:03PM 45.8661 -93.7222 351° North 147 169 6,000  Climbing Minneapolis Center
03:04PM 45.9056 -93.7314 341° North 147 169 6,000  Level Minneapolis Center
03:05PM 45.9472 -93.7525 349° North 147 169 6,000  Level Minneapolis Center
03:06PM 45.9908 -93.7647 351° North 147 169 6,000  Level Minneapolis Center
03:07PM 46.0325 -93.7739 349° North 147 169 6,000  Level Minneapolis Center
03:08PM 46.0764 -93.7861 348° North 147 169 6,000  Level Minneapolis Center
03:09PM 46.1158 -93.7983 345° North 147 169 6,000  Level Minneapolis Center
03:10PM 46.1553 -93.8136 346° North 147 169 6,000  Level Minneapolis Center
03:11PM 46.1969 -93.8289 355° North 147 169 6,000  Level Minneapolis Center
03:12PM 46.2447 -93.8353 351° North 147 169 6,000  Level Minneapolis Center
03:13PM 46.2844 -93.8444 346° North 147 169 6,000  Level Minneapolis Center
03:14PM 46.3281 -93.8600 349° North 147 169 6,000  Level Minneapolis Center
03:15PM 46.3697 -93.8722 352° North 147 169 6,000  Level Minneapolis Center
03:16PM 46.4133 -93.8817 346° North 147 169 6,000  Level Minneapolis Center
03:17PM 46.4550 -93.8969 348° North 147 169 6,000 -60 Level Minneapolis Center
03:18PM 46.4967 -93.9094 349° North 152 175 5,900 -60 Descending Minneapolis Center
03:19PM 46.5403 -93.9219 346° North 152 175 5,900  Level Minneapolis Center
03:20PM 46.5819 -93.9372 351° North 152 175 5,900  Level Minneapolis Center
03:21PM 46.6256 -93.9469 346° North 152 175 5,900  Level Minneapolis Center
03:22PM 46.6692 -93.9625 349° North 157 181 5,900  Level Minneapolis Center
03:23PM 46.7128 -93.9750 349° North 163 188 5,900  Level Minneapolis Center
03:24PM 46.7567 -93.9875 346° North 163 188 6,000 60 Climbing Minneapolis Center
03:25PM 46.7981 -94.0031 348° North 158 182 6,100  Climbing Minneapolis Center
03:26PM 46.8397 -94.0156 349° North 158 182 6,100  Level Minneapolis Center
03:27PM 46.8833 -94.0283 348° North 158 182 6,100  Level Minneapolis Center
03:28PM 46.9250 -94.0408 349° North 158 182 6,100  Level Minneapolis Center
03:29PM 46.9708 -94.0536 349° North 158 182 6,100  Level Minneapolis Center
03:30PM 47.0144 -94.0661 349° North 158 182 6,100  Level Minneapolis Center
03:31PM 47.0581 -94.0789 346° North 158 182 6,100  Level Minneapolis Center
03:32PM 47.1017 -94.0947 349° North 158 182 6,100  Level Minneapolis Center
03:33PM 47.1453 -94.1075 349° North 158 182 6,100  Level Minneapolis Center
03:34PM 47.1892 -94.1203 349° North 158 182 6,100  Level Minneapolis Center
03:35PM 47.2328 -94.1331 346° North 158 182 6,100  Level Minneapolis Center
03:36PM 47.2764 -94.1489 349° North 158 182 6,100  Level Minneapolis Center
03:37PM 47.3219 -94.1617 348° North 158 182 6,100  Level Minneapolis Center
03:38PM 47.3636 -94.1744 349° North 158 182 6,100  Level Minneapolis Center
03:39PM 47.4072 -94.1875 346° North 158 182 6,100  Level Minneapolis Center
03:40PM 47.4508 -94.2033 349° North 158 182 6,100  Level Minneapolis Center
03:41PM 47.4967 -94.2164 349° North 158 182 6,100  Level Minneapolis Center
03:42PM 47.5403 -94.2292 346° North 158 182 6,100  Level Minneapolis Center
03:43PM 47.5839 -94.2453 349° North 158 182 6,100  Level Minneapolis Center
03:44PM 47.6275 -94.2583 346° North 158 182 6,100  Level Minneapolis Center
03:45PM 47.6711 -94.2744 349° North 158 182 6,100  Level Minneapolis Center
03:46PM 47.7169 -94.2875 349° North 163 188 6,100  Level Minneapolis Center
03:47PM 47.7606 -94.3006 348° North 163 188 6,100  Level Minneapolis Center
03:48PM 47.8019 -94.3136 347° North 163 188 6,100 -60 Level Minneapolis Center
03:49PM 47.8497 -94.3297 351° North 163 188 6,000 -60 Descending Minneapolis Center
03:50PM 47.8914 -94.3397 349° North 163 188 6,000  Level Minneapolis Center
03:51PM 47.9369 -94.3531 346° North 163 188 6,000  Level Minneapolis Center
03:52PM 47.9806 -94.3692 351° North 163 188 6,000  Level Minneapolis Center
03:53PM 48.0242 -94.3792 North 163 188 6,000  Level Minneapolis Center
03:54PM 48.0700 -94.3769 North 163 188 6,000 -120 Level Minneapolis Center
03:55PM 48.1181 -94.3717 359° North 163 188 5,800 -300 Descending Minneapolis Center
03:56PM 48.1658 -94.3725 344° North 163 188 5,500 -300 Descending Minneapolis Center
04:04PM 48.4780 -94.5049 344° North  Level FlightAware Approximate
04:05PM 48.5207 -94.5231 333° Northwest  Level FlightAware Approximate
04:06PM 48.5598 -94.5533 348° North  Level FlightAware Approximate
04:07PM 48.6031 -94.5677 348° North  Level FlightAware Approximate